首页
METAR-TAF:

METAR-TAF

机场 :

特拉帕尼, 意大利

纬度: 37-55N, 经度: 012-30E, 海拔: 7米

当前天气观测

该预报发布于46分钟前的21:55 UTC
风速3节,风向南转西南
温度 12°C
湿度 88%
气压 1013 hPa
能见度10公里或以上
散云层高于1700英尺
多云层高于5000英尺
小雨

METAR: LICT 292155Z 20003KT 9999 -RA SCT017 BKN050 12/10 Q1013 RMK OVC BKN070 VIS MIN 9999 WIND THR13 00000KT BLU

时间: 00:41 (22:41 UTC)

预报

该预报发布于2小时和41分钟前的20:00 UTC
预报有效从29日的 21点(UTC)到 30日的 06点(UTC)
风速2节,风向北转东北
能见度10公里或以上
散云层高于2500英尺
多云层高于5000英尺

TAF: LICT 292000Z 2921/3006 03002KT 9999 RA SCT025 BKN050

超过4000个机场的气象观测和天气预报(METAR&TAF报告)。

可查询的气象台以黄色和红色小点在地图上表示。

将鼠标移到小点上方,可查看气象台名称。

然后点击查看天气观测和预报。

如需切换地图:点击带黑十字的绿色按钮放大地图;点击带横线的绿色按钮缩小地图;或者点击绿色箭头查看邻近地区的地图。


METAR-TAF: